sensor_id;sensor_type;location;lat;lon;timestamp;temperature;humidity
20714;DHT22;10518;50.742;4.226;2023-05-28T00:01:17;15.40;99.90
20714;DHT22;10518;50.742;4.226;2023-05-28T00:03:43;15.40;99.90
20714;DHT22;10518;50.742;4.226;2023-05-28T00:06:09;15.30;99.90
20714;DHT22;10518;50.742;4.226;2023-05-28T00:08:34;15.30;99.90
20714;DHT22;10518;50.742;4.226;2023-05-28T00:11:00;15.20;99.90
20714;DHT22;10518;50.742;4.226;2023-05-28T00:13:29;15.10;99.90
20714;DHT22;10518;50.742;4.226;2023-05-28T00:15:55;15.00;99.90
20714;DHT22;10518;50.742;4.226;2023-05-28T00:18:21;15.00;99.90
20714;DHT22;10518;50.742;4.226;2023-05-28T00:20:47;14.90;99.90
20714;DHT22;10518;50.742;4.226;2023-05-28T00:23:13;14.80;99.90
20714;DHT22;10518;50.742;4.226;2023-05-28T00:25:40;14.80;99.90
20714;DHT22;10518;50.742;4.226;2023-05-28T00:28:05;14.80;99.90
20714;DHT22;10518;50.742;4.226;2023-05-28T00:30:31;14.80;99.90
20714;DHT22;10518;50.742;4.226;2023-05-28T00:32:56;14.70;99.90
20714;DHT22;10518;50.742;4.226;2023-05-28T00:35:22;14.60;99.90
20714;DHT22;10518;50.742;4.226;2023-05-28T00:37:48;14.70;99.90
20714;DHT22;10518;50.742;4.226;2023-05-28T00:40:13;14.60;99.90
20714;DHT22;10518;50.742;4.226;2023-05-28T00:42:43;14.50;99.90
20714;DHT22;10518;50.742;4.226;2023-05-28T00:45:09;14.40;99.90
20714;DHT22;10518;50.742;4.226;2023-05-28T00:47:35;14.30;99.90
20714;DHT22;10518;50.742;4.226;2023-05-28T00:50:01;14.30;99.90
20714;DHT22;10518;50.742;4.226;2023-05-28T00:52:27;14.20;99.90
20714;DHT22;10518;50.742;4.226;2023-05-28T00:54:53;14.20;99.90
20714;DHT22;10518;50.742;4.226;2023-05-28T00:57:21;14.20;99.90
20714;DHT22;10518;50.742;4.226;2023-05-28T00:59:49;14.20;99.90
20714;DHT22;10518;50.742;4.226;2023-05-28T01:02:16;14.10;99.90
20714;DHT22;10518;50.742;4.226;2023-05-28T01:04:41;14.00;99.90
20714;DHT22;10518;50.742;4.226;2023-05-28T01:07:07;14.00;99.90
20714;DHT22;10518;50.742;4.226;2023-05-28T01:09:33;13.90;99.90
20714;DHT22;10518;50.742;4.226;2023-05-28T01:11:59;13.90;99.90
20714;DHT22;10518;50.742;4.226;2023-05-28T01:14:26;13.90;99.90
20714;DHT22;10518;50.742;4.226;2023-05-28T01:16:52;13.90;99.90
20714;DHT22;10518;50.742;4.226;2023-05-28T01:19:19;13.80;99.90
20714;DHT22;10518;50.742;4.226;2023-05-28T01:21:55;13.80;99.90
20714;DHT22;10518;50.742;4.226;2023-05-28T01:24:21;13.80;99.90
20714;DHT22;10518;50.742;4.226;2023-05-28T01:26:47;13.80;99.90
20714;DHT22;10518;50.742;4.226;2023-05-28T01:29:18;13.90;99.90
20714;DHT22;10518;50.742;4.226;2023-05-28T01:31:44;14.00;99.90
20714;DHT22;10518;50.742;4.226;2023-05-28T01:34:10;14.10;99.90
20714;DHT22;10518;50.742;4.226;2023-05-28T01:36:42;14.10;99.90
20714;DHT22;10518;50.742;4.226;2023-05-28T01:39:09;14.10;99.90
20714;DHT22;10518;50.742;4.226;2023-05-28T01:41:38;14.10;99.90
20714;DHT22;10518;50.742;4.226;2023-05-28T01:44:04;14.10;99.90
20714;DHT22;10518;50.742;4.226;2023-05-28T01:46:32;14.20;99.90
20714;DHT22;10518;50.742;4.226;2023-05-28T01:48:59;14.30;99.90
20714;DHT22;10518;50.742;4.226;2023-05-28T01:51:26;14.10;99.90
20714;DHT22;10518;50.742;4.226;2023-05-28T01:53:51;14.30;99.90
20714;DHT22;10518;50.742;4.226;2023-05-28T01:56:17;14.00;99.90
20714;DHT22;10518;50.742;4.226;2023-05-28T01:58:43;14.00;99.90
20714;DHT22;10518;50.742;4.226;2023-05-28T02:01:20;13.80;99.90
20714;DHT22;10518;50.742;4.226;2023-05-28T02:03:50;13.90;99.90
20714;DHT22;10518;50.742;4.226;2023-05-28T02:06:15;13.90;99.90
20714;DHT22;10518;50.742;4.226;2023-05-28T02:08:41;13.90;99.90
20714;DHT22;10518;50.742;4.226;2023-05-28T02:11:06;13.90;99.90
20714;DHT22;10518;50.742;4.226;2023-05-28T02:13:32;14.00;99.90
20714;DHT22;10518;50.742;4.226;2023-05-28T02:15:58;13.90;99.90
20714;DHT22;10518;50.742;4.226;2023-05-28T02:18:24;14.00;99.90
20714;DHT22;10518;50.742;4.226;2023-05-28T02:20:49;14.00;99.90
20714;DHT22;10518;50.742;4.226;2023-05-28T02:23:15;13.80;99.90
20714;DHT22;10518;50.742;4.226;2023-05-28T02:25:40;13.80;99.90
20714;DHT22;10518;50.742;4.226;2023-05-28T02:28:06;13.80;99.90
20714;DHT22;10518;50.742;4.226;2023-05-28T02:30:32;13.70;99.90
20714;DHT22;10518;50.742;4.226;2023-05-28T02:32:57;14.20;99.90
20714;DHT22;10518;50.742;4.226;2023-05-28T02:35:23;14.00;99.90
20714;DHT22;10518;50.742;4.226;2023-05-28T02:37:49;13.90;99.90
20714;DHT22;10518;50.742;4.226;2023-05-28T02:40:15;13.90;99.90
20714;DHT22;10518;50.742;4.226;2023-05-28T02:42:40;13.70;99.90
20714;DHT22;10518;50.742;4.226;2023-05-28T02:45:06;13.60;99.90
20714;DHT22;10518;50.742;4.226;2023-05-28T02:47:32;13.60;99.90
20714;DHT22;10518;50.742;4.226;2023-05-28T02:49:58;13.90;99.90
20714;DHT22;10518;50.742;4.226;2023-05-28T02:52:23;13.90;99.90
20714;DHT22;10518;50.742;4.226;2023-05-28T02:54:49;13.80;99.90
20714;DHT22;10518;50.742;4.226;2023-05-28T02:57:15;13.80;99.90
20714;DHT22;10518;50.742;4.226;2023-05-28T02:59:40;13.80;99.90
20714;DHT22;10518;50.742;4.226;2023-05-28T03:02:06;13.70;99.90
20714;DHT22;10518;50.742;4.226;2023-05-28T03:04:32;13.70;99.90
20714;DHT22;10518;50.742;4.226;2023-05-28T03:06:58;13.70;99.90
20714;DHT22;10518;50.742;4.226;2023-05-28T03:09:23;13.60;99.90
20714;DHT22;10518;50.742;4.226;2023-05-28T03:11:49;13.70;99.90
20714;DHT22;10518;50.742;4.226;2023-05-28T03:14:15;13.90;99.90
20714;DHT22;10518;50.742;4.226;2023-05-28T03:16:41;14.20;99.90
20714;DHT22;10518;50.742;4.226;2023-05-28T03:19:06;14.10;99.90
20714;DHT22;10518;50.742;4.226;2023-05-28T03:21:32;13.90;99.90
20714;DHT22;10518;50.742;4.226;2023-05-28T03:23:57;13.70;99.90
20714;DHT22;10518;50.742;4.226;2023-05-28T03:26:23;13.60;99.90
20714;DHT22;10518;50.742;4.226;2023-05-28T03:28:48;13.50;99.90
20714;DHT22;10518;50.742;4.226;2023-05-28T03:31:14;13.40;99.90
20714;DHT22;10518;50.742;4.226;2023-05-28T03:33:40;13.40;99.90
20714;DHT22;10518;50.742;4.226;2023-05-28T03:36:06;13.30;99.90
20714;DHT22;10518;50.742;4.226;2023-05-28T03:38:32;13.30;99.90
20714;DHT22;10518;50.742;4.226;2023-05-28T03:40:58;13.20;99.90
20714;DHT22;10518;50.742;4.226;2023-05-28T03:43:23;13.10;99.90
20714;DHT22;10518;50.742;4.226;2023-05-28T03:45:49;13.10;99.90
20714;DHT22;10518;50.742;4.226;2023-05-28T03:48:14;13.00;99.90
20714;DHT22;10518;50.742;4.226;2023-05-28T03:50:40;13.00;99.90
20714;DHT22;10518;50.742;4.226;2023-05-28T03:53:06;12.90;99.90
20714;DHT22;10518;50.742;4.226;2023-05-28T03:55:33;12.90;99.90
20714;DHT22;10518;50.742;4.226;2023-05-28T03:57:58;12.90;99.90
20714;DHT22;10518;50.742;4.226;2023-05-28T04:00:24;12.90;99.90
20714;DHT22;10518;50.742;4.226;2023-05-28T04:02:50;12.90;99.90
20714;DHT22;10518;50.742;4.226;2023-05-28T04:05:15;12.80;99.90
20714;DHT22;10518;50.742;4.226;2023-05-28T04:07:41;12.80;99.90
20714;DHT22;10518;50.742;4.226;2023-05-28T04:10:07;12.90;99.90
20714;DHT22;10518;50.742;4.226;2023-05-28T04:12:33;12.90;99.90
20714;DHT22;10518;50.742;4.226;2023-05-28T04:14:58;12.90;99.90
20714;DHT22;10518;50.742;4.226;2023-05-28T04:17:26;12.80;99.90
20714;DHT22;10518;50.742;4.226;2023-05-28T04:19:55;12.90;99.90
20714;DHT22;10518;50.742;4.226;2023-05-28T04:22:21;12.90;99.90
20714;DHT22;10518;50.742;4.226;2023-05-28T04:24:49;12.90;99.90
20714;DHT22;10518;50.742;4.226;2023-05-28T04:27:17;13.00;99.90
20714;DHT22;10518;50.742;4.226;2023-05-28T04:29:42;13.00;99.90
20714;DHT22;10518;50.742;4.226;2023-05-28T04:32:09;13.10;99.90
20714;DHT22;10518;50.742;4.226;2023-05-28T04:34:35;13.20;99.90
20714;DHT22;10518;50.742;4.226;2023-05-28T04:37:02;13.20;99.90
20714;DHT22;10518;50.742;4.226;2023-05-28T04:39:29;13.40;99.90
20714;DHT22;10518;50.742;4.226;2023-05-28T04:41:55;13.60;99.90
20714;DHT22;10518;50.742;4.226;2023-05-28T04:44:21;13.80;99.90
20714;DHT22;10518;50.742;4.226;2023-05-28T04:46:54;13.80;99.90
20714;DHT22;10518;50.742;4.226;2023-05-28T04:49:20;13.90;99.90
20714;DHT22;10518;50.742;4.226;2023-05-28T04:51:45;13.90;99.90
20714;DHT22;10518;50.742;4.226;2023-05-28T04:54:11;13.90;99.90
20714;DHT22;10518;50.742;4.226;2023-05-28T04:56:36;14.00;99.90
20714;DHT22;10518;50.742;4.226;2023-05-28T04:59:02;14.10;99.90
20714;DHT22;10518;50.742;4.226;2023-05-28T05:01:31;14.10;99.90
20714;DHT22;10518;50.742;4.226;2023-05-28T05:03:58;14.40;99.90
20714;DHT22;10518;50.742;4.226;2023-05-28T05:06:24;14.70;99.90
20714;DHT22;10518;50.742;4.226;2023-05-28T05:08:50;15.40;99.90
20714;DHT22;10518;50.742;4.226;2023-05-28T05:11:15;15.30;99.90
20714;DHT22;10518;50.742;4.226;2023-05-28T05:13:41;15.50;99.90
20714;DHT22;10518;50.742;4.226;2023-05-28T05:16:07;16.00;99.90
20714;DHT22;10518;50.742;4.226;2023-05-28T05:18:32;16.80;99.90
20714;DHT22;10518;50.742;4.226;2023-05-28T05:20:58;17.40;99.90
20714;DHT22;10518;50.742;4.226;2023-05-28T05:23:23;18.00;99.90
20714;DHT22;10518;50.742;4.226;2023-05-28T05:25:49;18.60;99.90
20714;DHT22;10518;50.742;4.226;2023-05-28T05:28:15;19.30;99.90
20714;DHT22;10518;50.742;4.226;2023-05-28T05:30:40;20.30;99.90
20714;DHT22;10518;50.742;4.226;2023-05-28T05:33:06;20.90;99.90
20714;DHT22;10518;50.742;4.226;2023-05-28T05:35:32;21.30;99.90
20714;DHT22;10518;50.742;4.226;2023-05-28T05:37:57;21.20;99.90
20714;DHT22;10518;50.742;4.226;2023-05-28T05:40:23;21.70;99.90
20714;DHT22;10518;50.742;4.226;2023-05-28T05:42:48;22.70;99.90
20714;DHT22;10518;50.742;4.226;2023-05-28T05:45:14;22.70;99.90
20714;DHT22;10518;50.742;4.226;2023-05-28T05:47:40;23.40;99.90
20714;DHT22;10518;50.742;4.226;2023-05-28T05:50:06;24.20;99.90
20714;DHT22;10518;50.742;4.226;2023-05-28T05:52:31;24.40;99.90
20714;DHT22;10518;50.742;4.226;2023-05-28T05:54:57;25.10;99.90
20714;DHT22;10518;50.742;4.226;2023-05-28T05:57:23;25.20;99.90
20714;DHT22;10518;50.742;4.226;2023-05-28T05:59:49;24.80;99.90
20714;DHT22;10518;50.742;4.226;2023-05-28T06:02:15;24.60;99.90
20714;DHT22;10518;50.742;4.226;2023-05-28T06:04:40;24.30;99.90
20714;DHT22;10518;50.742;4.226;2023-05-28T06:07:06;24.60;99.90
20714;DHT22;10518;50.742;4.226;2023-05-28T06:09:35;24.50;99.90
20714;DHT22;10518;50.742;4.226;2023-05-28T06:12:01;24.60;99.90
20714;DHT22;10518;50.742;4.226;2023-05-28T06:14:27;24.80;99.90
20714;DHT22;10518;50.742;4.226;2023-05-28T06:16:53;24.60;99.90
20714;DHT22;10518;50.742;4.226;2023-05-28T06:19:19;25.30;99.90
20714;DHT22;10518;50.742;4.226;2023-05-28T06:21:45;25.60;99.90
20714;DHT22;10518;50.742;4.226;2023-05-28T06:24:10;26.10;99.90
20714;DHT22;10518;50.742;4.226;2023-05-28T06:26:36;26.40;99.90
20714;DHT22;10518;50.742;4.226;2023-05-28T06:29:02;25.70;99.90
20714;DHT22;10518;50.742;4.226;2023-05-28T06:31:28;26.30;99.90
20714;DHT22;10518;50.742;4.226;2023-05-28T06:33:53;26.50;99.90
20714;DHT22;10518;50.742;4.226;2023-05-28T06:36:19;26.70;99.90
20714;DHT22;10518;50.742;4.226;2023-05-28T06:38:45;26.20;99.90
20714;DHT22;10518;50.742;4.226;2023-05-28T06:41:10;26.60;99.90
20714;DHT22;10518;50.742;4.226;2023-05-28T06:43:37;26.20;99.90
20714;DHT22;10518;50.742;4.226;2023-05-28T06:46:03;26.20;99.90
20714;DHT22;10518;50.742;4.226;2023-05-28T06:48:28;26.00;99.90
20714;DHT22;10518;50.742;4.226;2023-05-28T06:50:54;26.00;99.90
20714;DHT22;10518;50.742;4.226;2023-05-28T06:53:19;25.50;99.90
20714;DHT22;10518;50.742;4.226;2023-05-28T06:55:45;24.80;99.90
20714;DHT22;10518;50.742;4.226;2023-05-28T06:58:11;25.60;99.90
20714;DHT22;10518;50.742;4.226;2023-05-28T07:00:36;25.20;99.90
20714;DHT22;10518;50.742;4.226;2023-05-28T07:03:02;26.20;99.90
20714;DHT22;10518;50.742;4.226;2023-05-28T07:05:28;26.90;99.90
20714;DHT22;10518;50.742;4.226;2023-05-28T07:07:54;27.20;99.90
20714;DHT22;10518;50.742;4.226;2023-05-28T07:10:20;26.30;99.90
20714;DHT22;10518;50.742;4.226;2023-05-28T07:12:46;26.20;99.90
20714;DHT22;10518;50.742;4.226;2023-05-28T07:15:11;26.70;99.90
20714;DHT22;10518;50.742;4.226;2023-05-28T07:17:37;26.30;99.90
20714;DHT22;10518;50.742;4.226;2023-05-28T07:20:03;27.20;99.90
20714;DHT22;10518;50.742;4.226;2023-05-28T07:22:31;27.30;99.90
20714;DHT22;10518;50.742;4.226;2023-05-28T07:24:56;27.10;99.90
20714;DHT22;10518;50.742;4.226;2023-05-28T07:27:22;27.30;99.90
20714;DHT22;10518;50.742;4.226;2023-05-28T07:29:48;27.20;99.90
20714;DHT22;10518;50.742;4.226;2023-05-28T07:32:13;27.40;99.90
20714;DHT22;10518;50.742;4.226;2023-05-28T07:34:39;26.90;99.90
20714;DHT22;10518;50.742;4.226;2023-05-28T07:37:06;27.30;99.90
20714;DHT22;10518;50.742;4.226;2023-05-28T07:39:31;27.60;99.90
20714;DHT22;10518;50.742;4.226;2023-05-28T07:41:57;28.10;99.90
20714;DHT22;10518;50.742;4.226;2023-05-28T07:44:22;27.60;99.90
20714;DHT22;10518;50.742;4.226;2023-05-28T07:46:48;26.90;99.90
20714;DHT22;10518;50.742;4.226;2023-05-28T07:49:14;26.60;99.90
20714;DHT22;10518;50.742;4.226;2023-05-28T07:51:42;26.10;99.90
20714;DHT22;10518;50.742;4.226;2023-05-28T07:54:08;26.90;99.90
20714;DHT22;10518;50.742;4.226;2023-05-28T07:56:34;26.90;99.90
20714;DHT22;10518;50.742;4.226;2023-05-28T07:59:00;26.00;99.90
20714;DHT22;10518;50.742;4.226;2023-05-28T08:01:25;25.50;99.90
20714;DHT22;10518;50.742;4.226;2023-05-28T08:03:51;25.50;99.90
20714;DHT22;10518;50.742;4.226;2023-05-28T08:06:20;25.20;99.90
20714;DHT22;10518;50.742;4.226;2023-05-28T08:08:45;24.60;99.90
20714;DHT22;10518;50.742;4.226;2023-05-28T08:11:11;24.50;99.90
20714;DHT22;10518;50.742;4.226;2023-05-28T08:13:39;24.20;99.90
20714;DHT22;10518;50.742;4.226;2023-05-28T08:16:05;24.20;99.90
20714;DHT22;10518;50.742;4.226;2023-05-28T08:18:30;24.60;99.90
20714;DHT22;10518;50.742;4.226;2023-05-28T08:20:56;23.60;99.90
20714;DHT22;10518;50.742;4.226;2023-05-28T08:23:22;22.90;99.90
20714;DHT22;10518;50.742;4.226;2023-05-28T08:25:47;22.60;99.90
20714;DHT22;10518;50.742;4.226;2023-05-28T08:28:16;22.30;99.90
20714;DHT22;10518;50.742;4.226;2023-05-28T08:30:41;22.30;99.90
20714;DHT22;10518;50.742;4.226;2023-05-28T08:33:07;22.40;99.90
20714;DHT22;10518;50.742;4.226;2023-05-28T08:35:33;22.60;99.90
20714;DHT22;10518;50.742;4.226;2023-05-28T08:37:58;22.20;99.90
20714;DHT22;10518;50.742;4.226;2023-05-28T08:40:24;22.30;99.90
20714;DHT22;10518;50.742;4.226;2023-05-28T08:42:50;22.30;99.90
20714;DHT22;10518;50.742;4.226;2023-05-28T08:45:16;22.40;99.90
20714;DHT22;10518;50.742;4.226;2023-05-28T08:47:43;22.60;99.90
20714;DHT22;10518;50.742;4.226;2023-05-28T08:50:09;22.50;99.90
20714;DHT22;10518;50.742;4.226;2023-05-28T08:52:36;22.70;99.90
20714;DHT22;10518;50.742;4.226;2023-05-28T08:55:02;22.80;99.90
20714;DHT22;10518;50.742;4.226;2023-05-28T08:57:29;22.50;99.90
20714;DHT22;10518;50.742;4.226;2023-05-28T08:59:55;22.30;99.90
20714;DHT22;10518;50.742;4.226;2023-05-28T09:02:24;22.20;99.90
20714;DHT22;10518;50.742;4.226;2023-05-28T09:04:50;21.80;99.90
20714;DHT22;10518;50.742;4.226;2023-05-28T09:07:15;21.80;99.90
20714;DHT22;10518;50.742;4.226;2023-05-28T09:09:41;22.00;99.90
20714;DHT22;10518;50.742;4.226;2023-05-28T09:12:11;22.10;99.90
20714;DHT22;10518;50.742;4.226;2023-05-28T09:14:41;22.00;99.90
20714;DHT22;10518;50.742;4.226;2023-05-28T09:17:09;21.80;99.90
20714;DHT22;10518;50.742;4.226;2023-05-28T09:19:35;22.00;99.90
20714;DHT22;10518;50.742;4.226;2023-05-28T09:22:02;22.00;99.90
20714;DHT22;10518;50.742;4.226;2023-05-28T09:24:32;22.20;99.90
20714;DHT22;10518;50.742;4.226;2023-05-28T09:26:58;22.50;99.90
20714;DHT22;10518;50.742;4.226;2023-05-28T09:29:25;22.80;99.90
20714;DHT22;10518;50.742;4.226;2023-05-28T09:31:55;22.90;99.90
20714;DHT22;10518;50.742;4.226;2023-05-28T09:34:25;22.70;99.90
20714;DHT22;10518;50.742;4.226;2023-05-28T09:36:52;22.80;99.90
20714;DHT22;10518;50.742;4.226;2023-05-28T09:39:17;22.80;99.90
20714;DHT22;10518;50.742;4.226;2023-05-28T09:41:43;23.00;99.90
20714;DHT22;10518;50.742;4.226;2023-05-28T09:44:11;22.80;99.90
20714;DHT22;10518;50.742;4.226;2023-05-28T09:46:38;22.60;99.90
20714;DHT22;10518;50.742;4.226;2023-05-28T09:49:04;22.40;99.90
20714;DHT22;10518;50.742;4.226;2023-05-28T09:51:32;22.50;99.90
20714;DHT22;10518;50.742;4.226;2023-05-28T09:54:03;22.30;99.90
20714;DHT22;10518;50.742;4.226;2023-05-28T09:56:32;22.40;99.90
20714;DHT22;10518;50.742;4.226;2023-05-28T09:59:00;22.40;99.90
20714;DHT22;10518;50.742;4.226;2023-05-28T10:01:30;22.50;99.90
20714;DHT22;10518;50.742;4.226;2023-05-28T10:04:02;22.70;99.90
20714;DHT22;10518;50.742;4.226;2023-05-28T10:06:30;23.00;99.90
20714;DHT22;10518;50.742;4.226;2023-05-28T10:08:59;22.80;99.90
20714;DHT22;10518;50.742;4.226;2023-05-28T10:11:30;22.80;99.90
20714;DHT22;10518;50.742;4.226;2023-05-28T10:13:56;23.00;99.90
20714;DHT22;10518;50.742;4.226;2023-05-28T10:16:22;23.00;99.90
20714;DHT22;10518;50.742;4.226;2023-05-28T10:18:49;23.00;99.90
20714;DHT22;10518;50.742;4.226;2023-05-28T10:21:15;22.80;99.90
20714;DHT22;10518;50.742;4.226;2023-05-28T10:23:41;22.90;99.90
20714;DHT22;10518;50.742;4.226;2023-05-28T10:26:08;23.20;99.90
20714;DHT22;10518;50.742;4.226;2023-05-28T10:28:34;23.10;99.90
20714;DHT22;10518;50.742;4.226;2023-05-28T10:31:01;23.30;99.90
20714;DHT22;10518;50.742;4.226;2023-05-28T10:33:29;23.20;99.90
20714;DHT22;10518;50.742;4.226;2023-05-28T10:35:57;23.00;99.90
20714;DHT22;10518;50.742;4.226;2023-05-28T10:38:23;23.20;99.90
20714;DHT22;10518;50.742;4.226;2023-05-28T10:40:49;23.00;99.90
20714;DHT22;10518;50.742;4.226;2023-05-28T10:43:43;23.30;99.90
20714;DHT22;10518;50.742;4.226;2023-05-28T10:48:40;23.20;99.90
20714;DHT22;10518;50.742;4.226;2023-05-28T10:51:06;23.50;99.90
20714;DHT22;10518;50.742;4.226;2023-05-28T10:53:32;23.40;99.90
20714;DHT22;10518;50.742;4.226;2023-05-28T10:56:00;23.40;99.90
20714;DHT22;10518;50.742;4.226;2023-05-28T10:58:27;23.60;99.90
20714;DHT22;10518;50.742;4.226;2023-05-28T11:06:10;23.10;99.90
20714;DHT22;10518;50.742;4.226;2023-05-28T11:08:48;23.20;99.90
20714;DHT22;10518;50.742;4.226;2023-05-28T11:11:15;23.60;99.90
20714;DHT22;10518;50.742;4.226;2023-05-28T11:13:48;23.70;99.90
20714;DHT22;10518;50.742;4.226;2023-05-28T11:16:18;23.60;99.90
20714;DHT22;10518;50.742;4.226;2023-05-28T11:19:06;23.70;99.90
20714;DHT22;10518;50.742;4.226;2023-05-28T11:21:34;23.80;99.90
20714;DHT22;10518;50.742;4.226;2023-05-28T11:24:02;23.90;99.90
20714;DHT22;10518;50.742;4.226;2023-05-28T11:26:28;23.90;99.90
20714;DHT22;10518;50.742;4.226;2023-05-28T11:28:53;23.90;99.90
20714;DHT22;10518;50.742;4.226;2023-05-28T11:31:19;23.80;99.90
20714;DHT22;10518;50.742;4.226;2023-05-28T11:33:49;23.80;99.90
20714;DHT22;10518;50.742;4.226;2023-05-28T11:36:14;24.00;99.90
20714;DHT22;10518;50.742;4.226;2023-05-28T11:38:40;24.00;99.90
20714;DHT22;10518;50.742;4.226;2023-05-28T11:41:06;24.00;99.90
20714;DHT22;10518;50.742;4.226;2023-05-28T11:43:31;24.20;99.90
20714;DHT22;10518;50.742;4.226;2023-05-28T11:45:58;24.10;99.90
20714;DHT22;10518;50.742;4.226;2023-05-28T11:48:28;23.80;99.90
20714;DHT22;10518;50.742;4.226;2023-05-28T11:50:59;24.00;99.90
20714;DHT22;10518;50.742;4.226;2023-05-28T11:53:40;23.90;99.90
20714;DHT22;10518;50.742;4.226;2023-05-28T11:56:07;24.00;99.90
20714;DHT22;10518;50.742;4.226;2023-05-28T11:58:34;23.70;99.90
20714;DHT22;10518;50.742;4.226;2023-05-28T12:01:02;23.80;99.90
20714;DHT22;10518;50.742;4.226;2023-05-28T12:03:28;23.60;99.90
20714;DHT22;10518;50.742;4.226;2023-05-28T12:05:54;23.70;99.90
20714;DHT22;10518;50.742;4.226;2023-05-28T12:08:19;23.70;99.90
20714;DHT22;10518;50.742;4.226;2023-05-28T12:10:45;23.90;99.90
20714;DHT22;10518;50.742;4.226;2023-05-28T12:13:14;24.00;99.90
20714;DHT22;10518;50.742;4.226;2023-05-28T12:15:41;24.10;99.90
20714;DHT22;10518;50.742;4.226;2023-05-28T12:18:06;24.10;99.90
20714;DHT22;10518;50.742;4.226;2023-05-28T12:20:41;24.20;99.90
20714;DHT22;10518;50.742;4.226;2023-05-28T12:23:09;24.30;99.90
20714;DHT22;10518;50.742;4.226;2023-05-28T12:25:46;24.40;99.90
20714;DHT22;10518;50.742;4.226;2023-05-28T12:28:19;24.30;99.90
20714;DHT22;10518;50.742;4.226;2023-05-28T12:30:53;24.40;99.90
20714;DHT22;10518;50.742;4.226;2023-05-28T12:33:20;24.20;99.90
20714;DHT22;10518;50.742;4.226;2023-05-28T12:35:47;24.60;99.90
20714;DHT22;10518;50.742;4.226;2023-05-28T12:38:13;24.70;99.90
20714;DHT22;10518;50.742;4.226;2023-05-28T12:40:39;24.60;99.90
20714;DHT22;10518;50.742;4.226;2023-05-28T12:43:06;24.40;99.90
20714;DHT22;10518;50.742;4.226;2023-05-28T12:45:31;24.40;99.90
20714;DHT22;10518;50.742;4.226;2023-05-28T12:47:57;24.50;99.90
20714;DHT22;10518;50.742;4.226;2023-05-28T12:50:22;24.60;99.90
20714;DHT22;10518;50.742;4.226;2023-05-28T12:52:51;24.40;99.90
20714;DHT22;10518;50.742;4.226;2023-05-28T12:55:17;24.40;99.90
20714;DHT22;10518;50.742;4.226;2023-05-28T12:57:43;24.60;99.90
20714;DHT22;10518;50.742;4.226;2023-05-28T13:00:09;24.60;99.90
20714;DHT22;10518;50.742;4.226;2023-05-28T13:02:39;24.40;99.90
20714;DHT22;10518;50.742;4.226;2023-05-28T13:05:06;24.40;99.90
20714;DHT22;10518;50.742;4.226;2023-05-28T13:07:32;24.40;99.90
20714;DHT22;10518;50.742;4.226;2023-05-28T13:09:57;24.50;99.90
20714;DHT22;10518;50.742;4.226;2023-05-28T13:12:23;24.80;99.90
20714;DHT22;10518;50.742;4.226;2023-05-28T13:14:49;24.70;99.90
20714;DHT22;10518;50.742;4.226;2023-05-28T13:17:15;24.80;99.90
20714;DHT22;10518;50.742;4.226;2023-05-28T13:19:40;24.70;99.90
20714;DHT22;10518;50.742;4.226;2023-05-28T13:22:06;24.60;99.90
20714;DHT22;10518;50.742;4.226;2023-05-28T13:24:36;24.60;99.90
20714;DHT22;10518;50.742;4.226;2023-05-28T13:27:01;24.60;99.90
20714;DHT22;10518;50.742;4.226;2023-05-28T13:29:27;24.70;99.90
20714;DHT22;10518;50.742;4.226;2023-05-28T13:31:52;24.70;99.90
20714;DHT22;10518;50.742;4.226;2023-05-28T13:34:18;24.80;99.90
20714;DHT22;10518;50.742;4.226;2023-05-28T13:36:44;24.80;99.90
20714;DHT22;10518;50.742;4.226;2023-05-28T13:39:09;25.00;99.90
20714;DHT22;10518;50.742;4.226;2023-05-28T13:41:35;24.90;99.90
20714;DHT22;10518;50.742;4.226;2023-05-28T13:44:01;24.80;99.90
20714;DHT22;10518;50.742;4.226;2023-05-28T13:46:27;25.00;99.90
20714;DHT22;10518;50.742;4.226;2023-05-28T13:48:53;24.90;99.90
20714;DHT22;10518;50.742;4.226;2023-05-28T13:51:19;24.90;99.90
20714;DHT22;10518;50.742;4.226;2023-05-28T13:53:45;25.00;99.90
20714;DHT22;10518;50.742;4.226;2023-05-28T13:56:12;24.90;99.90
20714;DHT22;10518;50.742;4.226;2023-05-28T13:58:38;25.00;99.90
20714;DHT22;10518;50.742;4.226;2023-05-28T14:01:04;24.90;99.90
20714;DHT22;10518;50.742;4.226;2023-05-28T14:03:30;24.90;99.90
20714;DHT22;10518;50.742;4.226;2023-05-28T14:05:56;25.00;99.90
20714;DHT22;10518;50.742;4.226;2023-05-28T14:08:21;24.80;99.90
20714;DHT22;10518;50.742;4.226;2023-05-28T14:10:48;24.70;99.90
20714;DHT22;10518;50.742;4.226;2023-05-28T14:13:14;24.90;99.90
20714;DHT22;10518;50.742;4.226;2023-05-28T14:15:39;25.00;99.90
20714;DHT22;10518;50.742;4.226;2023-05-28T14:18:05;25.30;99.90
20714;DHT22;10518;50.742;4.226;2023-05-28T14:20:32;25.10;99.90
20714;DHT22;10518;50.742;4.226;2023-05-28T14:23:03;24.90;99.90
20714;DHT22;10518;50.742;4.226;2023-05-28T14:25:29;24.80;99.90
20714;DHT22;10518;50.742;4.226;2023-05-28T14:27:55;24.50;99.90
20714;DHT22;10518;50.742;4.226;2023-05-28T14:30:21;24.50;99.90
20714;DHT22;10518;50.742;4.226;2023-05-28T14:32:46;24.60;99.90
20714;DHT22;10518;50.742;4.226;2023-05-28T14:35:12;24.70;99.90
20714;DHT22;10518;50.742;4.226;2023-05-28T14:37:37;25.00;99.90
20714;DHT22;10518;50.742;4.226;2023-05-28T14:40:05;25.20;99.90
20714;DHT22;10518;50.742;4.226;2023-05-28T14:42:30;25.10;99.90
20714;DHT22;10518;50.742;4.226;2023-05-28T14:44:56;25.10;99.90
20714;DHT22;10518;50.742;4.226;2023-05-28T14:47:22;25.00;99.90
20714;DHT22;10518;50.742;4.226;2023-05-28T14:49:48;24.80;99.90
20714;DHT22;10518;50.742;4.226;2023-05-28T14:52:21;24.80;99.90
20714;DHT22;10518;50.742;4.226;2023-05-28T14:54:48;24.90;99.90
20714;DHT22;10518;50.742;4.226;2023-05-28T14:57:14;24.90;99.90
20714;DHT22;10518;50.742;4.226;2023-05-28T14:59:40;24.90;99.90
20714;DHT22;10518;50.742;4.226;2023-05-28T15:02:05;24.70;99.90
20714;DHT22;10518;50.742;4.226;2023-05-28T15:04:31;24.90;99.90
20714;DHT22;10518;50.742;4.226;2023-05-28T15:06:57;24.90;99.90
20714;DHT22;10518;50.742;4.226;2023-05-28T15:09:26;25.00;99.90
20714;DHT22;10518;50.742;4.226;2023-05-28T15:11:51;24.90;99.90
20714;DHT22;10518;50.742;4.226;2023-05-28T15:14:17;24.90;99.90
20714;DHT22;10518;50.742;4.226;2023-05-28T15:16:43;24.80;99.90
20714;DHT22;10518;50.742;4.226;2023-05-28T15:19:08;25.10;99.90
20714;DHT22;10518;50.742;4.226;2023-05-28T15:21:34;25.10;99.90
20714;DHT22;10518;50.742;4.226;2023-05-28T15:24:00;25.10;99.90
20714;DHT22;10518;50.742;4.226;2023-05-28T15:26:26;25.00;99.90
20714;DHT22;10518;50.742;4.226;2023-05-28T15:28:51;25.10;99.90
20714;DHT22;10518;50.742;4.226;2023-05-28T15:31:19;25.20;99.90
20714;DHT22;10518;50.742;4.226;2023-05-28T15:33:45;25.30;99.90